sensor_id;sensor_type;location;lat;lon;timestamp;temperature;humidity
1107;DHT22;540;49.448;8.612;2023-10-08T00:01:09;16.90;87.20
1107;DHT22;540;49.448;8.612;2023-10-08T00:03:39;17.00;87.40
1107;DHT22;540;49.448;8.612;2023-10-08T00:06:08;17.10;87.70
1107;DHT22;540;49.448;8.612;2023-10-08T00:08:41;16.90;87.80
1107;DHT22;540;49.448;8.612;2023-10-08T00:11:10;16.90;87.80
1107;DHT22;540;49.448;8.612;2023-10-08T00:13:38;16.70;87.70
1107;DHT22;540;49.448;8.612;2023-10-08T00:16:08;17.00;88.40
1107;DHT22;540;49.448;8.612;2023-10-08T00:18:39;17.00;88.50
1107;DHT22;540;49.448;8.612;2023-10-08T00:21:09;17.10;88.50
1107;DHT22;540;49.448;8.612;2023-10-08T00:23:45;17.20;88.80
1107;DHT22;540;49.448;8.612;2023-10-08T00:26:19;16.90;88.60
1107;DHT22;540;49.448;8.612;2023-10-08T00:28:55;17.20;89.20
1107;DHT22;540;49.448;8.612;2023-10-08T00:31:23;16.90;88.90
1107;DHT22;540;49.448;8.612;2023-10-08T00:33:57;17.10;89.20
1107;DHT22;540;49.448;8.612;2023-10-08T00:36:26;17.10;89.40
1107;DHT22;540;49.448;8.612;2023-10-08T00:38:55;17.10;89.50
1107;DHT22;540;49.448;8.612;2023-10-08T00:41:26;17.00;89.60
1107;DHT22;540;49.448;8.612;2023-10-08T00:43:57;17.00;89.70
1107;DHT22;540;49.448;8.612;2023-10-08T00:46:27;17.30;90.20
1107;DHT22;540;49.448;8.612;2023-10-08T00:49:01;17.00;90.20
1107;DHT22;540;49.448;8.612;2023-10-08T00:51:52;16.80;90.30
1107;DHT22;540;49.448;8.612;2023-10-08T00:54:32;16.90;90.50
1107;DHT22;540;49.448;8.612;2023-10-08T00:57:02;16.40;90.80
1107;DHT22;540;49.448;8.612;2023-10-08T00:59:33;16.90;90.90
1107;DHT22;540;49.448;8.612;2023-10-08T01:02:10;16.60;90.80
1107;DHT22;540;49.448;8.612;2023-10-08T01:04:42;16.80;91.10
1107;DHT22;540;49.448;8.612;2023-10-08T01:07:12;16.60;91.10
1107;DHT22;540;49.448;8.612;2023-10-08T01:09:44;16.60;91.20
1107;DHT22;540;49.448;8.612;2023-10-08T01:12:19;16.90;91.50
1107;DHT22;540;49.448;8.612;2023-10-08T01:14:50;16.40;91.40
1107;DHT22;540;49.448;8.612;2023-10-08T01:17:21;16.40;91.50
1107;DHT22;540;49.448;8.612;2023-10-08T01:19:53;16.80;91.80
1107;DHT22;540;49.448;8.612;2023-10-08T01:22:28;16.50;91.80
1107;DHT22;540;49.448;8.612;2023-10-08T01:24:57;16.60;91.90
1107;DHT22;540;49.448;8.612;2023-10-08T01:27:31;16.70;92.10
1107;DHT22;540;49.448;8.612;2023-10-08T01:30:01;16.70;92.10
1107;DHT22;540;49.448;8.612;2023-10-08T01:32:45;16.30;92.00
1107;DHT22;540;49.448;8.612;2023-10-08T01:35:14;16.40;92.20
1107;DHT22;540;49.448;8.612;2023-10-08T01:37:52;16.60;92.40
1107;DHT22;540;49.448;8.612;2023-10-08T01:40:23;16.40;92.40
1107;DHT22;540;49.448;8.612;2023-10-08T01:42:53;16.60;92.40
1107;DHT22;540;49.448;8.612;2023-10-08T01:45:21;16.50;92.40
1107;DHT22;540;49.448;8.612;2023-10-08T01:47:53;16.50;92.50
1107;DHT22;540;49.448;8.612;2023-10-08T01:50:22;16.70;92.60
1107;DHT22;540;49.448;8.612;2023-10-08T01:52:53;16.10;92.30
1107;DHT22;540;49.448;8.612;2023-10-08T01:55:21;16.40;92.60
1107;DHT22;540;49.448;8.612;2023-10-08T01:57:50;16.10;92.60
1107;DHT22;540;49.448;8.612;2023-10-08T02:00:19;16.30;92.80
1107;DHT22;540;49.448;8.612;2023-10-08T02:02:50;16.40;93.00
1107;DHT22;540;49.448;8.612;2023-10-08T02:05:18;16.20;93.00
1107;DHT22;540;49.448;8.612;2023-10-08T02:07:47;16.20;93.30
1107;DHT22;540;49.448;8.612;2023-10-08T02:10:17;16.20;93.50
1107;DHT22;540;49.448;8.612;2023-10-08T02:12:45;16.20;93.80
1107;DHT22;540;49.448;8.612;2023-10-08T02:15:13;16.30;93.80
1107;DHT22;540;49.448;8.612;2023-10-08T02:17:42;16.20;93.90
1107;DHT22;540;49.448;8.612;2023-10-08T02:20:11;16.00;94.00
1107;DHT22;540;49.448;8.612;2023-10-08T02:22:39;16.00;94.20
1107;DHT22;540;49.448;8.612;2023-10-08T02:25:08;16.20;94.50
1107;DHT22;540;49.448;8.612;2023-10-08T02:27:39;15.90;94.60
1107;DHT22;540;49.448;8.612;2023-10-08T02:30:08;16.10;94.80
1107;DHT22;540;49.448;8.612;2023-10-08T02:32:39;15.70;94.80
1107;DHT22;540;49.448;8.612;2023-10-08T02:35:09;15.90;94.90
1107;DHT22;540;49.448;8.612;2023-10-08T02:37:40;15.80;95.00
1107;DHT22;540;49.448;8.612;2023-10-08T02:40:08;15.80;95.10
1107;DHT22;540;49.448;8.612;2023-10-08T02:42:47;15.80;95.30
1107;DHT22;540;49.448;8.612;2023-10-08T02:45:15;15.80;95.40
1107;DHT22;540;49.448;8.612;2023-10-08T02:47:44;15.80;95.40
1107;DHT22;540;49.448;8.612;2023-10-08T02:50:12;15.80;95.50
1107;DHT22;540;49.448;8.612;2023-10-08T02:52:43;16.00;95.60
1107;DHT22;540;49.448;8.612;2023-10-08T02:55:12;15.80;95.70
1107;DHT22;540;49.448;8.612;2023-10-08T02:57:55;15.60;95.70
1107;DHT22;540;49.448;8.612;2023-10-08T03:00:23;15.60;95.90
1107;DHT22;540;49.448;8.612;2023-10-08T03:02:56;15.60;96.00
1107;DHT22;540;49.448;8.612;2023-10-08T03:05:25;15.60;96.10
1107;DHT22;540;49.448;8.612;2023-10-08T03:08:03;15.60;96.30
1107;DHT22;540;49.448;8.612;2023-10-08T03:10:37;15.70;96.30
1107;DHT22;540;49.448;8.612;2023-10-08T03:13:07;15.50;96.50
1107;DHT22;540;49.448;8.612;2023-10-08T03:15:37;15.40;96.60
1107;DHT22;540;49.448;8.612;2023-10-08T03:18:14;15.60;96.80
1107;DHT22;540;49.448;8.612;2023-10-08T03:20:42;15.50;96.80
1107;DHT22;540;49.448;8.612;2023-10-08T03:23:13;15.40;97.00
1107;DHT22;540;49.448;8.612;2023-10-08T03:25:54;15.20;96.90
1107;DHT22;540;49.448;8.612;2023-10-08T03:28:29;15.40;97.00
1107;DHT22;540;49.448;8.612;2023-10-08T03:31:01;15.30;97.00
1107;DHT22;540;49.448;8.612;2023-10-08T03:33:40;15.10;96.90
1107;DHT22;540;49.448;8.612;2023-10-08T03:36:09;14.70;96.70
1107;DHT22;540;49.448;8.612;2023-10-08T03:38:41;15.30;97.20
1107;DHT22;540;49.448;8.612;2023-10-08T03:41:22;15.40;97.40
1107;DHT22;540;49.448;8.612;2023-10-08T03:43:57;14.80;97.20
1107;DHT22;540;49.448;8.612;2023-10-08T03:46:29;15.30;97.50
1107;DHT22;540;49.448;8.612;2023-10-08T03:48:57;15.30;97.50
1107;DHT22;540;49.448;8.612;2023-10-08T03:51:31;14.90;97.30
1107;DHT22;540;49.448;8.612;2023-10-08T03:54:06;15.00;97.40
1107;DHT22;540;49.448;8.612;2023-10-08T03:56:42;15.10;97.50
1107;DHT22;540;49.448;8.612;2023-10-08T03:59:16;15.20;97.80
1107;DHT22;540;49.448;8.612;2023-10-08T04:01:57;15.20;97.30
1107;DHT22;540;49.448;8.612;2023-10-08T04:04:36;15.40;97.50
1107;DHT22;540;49.448;8.612;2023-10-08T04:07:17;14.90;97.30
1107;DHT22;540;49.448;8.612;2023-10-08T04:10:27;14.70;97.30
1107;DHT22;540;49.448;8.612;2023-10-08T04:13:35;15.10;97.50
1107;DHT22;540;49.448;8.612;2023-10-08T04:16:12;14.90;97.60
1107;DHT22;540;49.448;8.612;2023-10-08T04:18:46;15.00;97.70
1107;DHT22;540;49.448;8.612;2023-10-08T04:21:18;15.20;98.20
1107;DHT22;540;49.448;8.612;2023-10-08T04:23:47;15.10;98.20
1107;DHT22;540;49.448;8.612;2023-10-08T04:26:20;14.90;98.10
1107;DHT22;540;49.448;8.612;2023-10-08T04:28:52;15.10;98.30
1107;DHT22;540;49.448;8.612;2023-10-08T04:31:25;15.10;98.20
1107;DHT22;540;49.448;8.612;2023-10-08T04:34:04;15.00;98.50
1107;DHT22;540;49.448;8.612;2023-10-08T04:36:37;15.10;99.20
1107;DHT22;540;49.448;8.612;2023-10-08T04:39:06;15.20;99.60
1107;DHT22;540;49.448;8.612;2023-10-08T04:41:40;14.80;98.90
1107;DHT22;540;49.448;8.612;2023-10-08T04:44:11;14.80;98.60
1107;DHT22;540;49.448;8.612;2023-10-08T04:46:43;14.90;98.50
1107;DHT22;540;49.448;8.612;2023-10-08T04:49:15;15.00;98.50
1107;DHT22;540;49.448;8.612;2023-10-08T04:52:03;15.00;98.40
1107;DHT22;540;49.448;8.612;2023-10-08T04:54:41;15.00;98.20
1107;DHT22;540;49.448;8.612;2023-10-08T04:57:18;15.10;98.00
1107;DHT22;540;49.448;8.612;2023-10-08T04:59:49;15.00;97.90
1107;DHT22;540;49.448;8.612;2023-10-08T05:02:19;15.10;97.90
1107;DHT22;540;49.448;8.612;2023-10-08T05:04:49;15.10;98.10
1107;DHT22;540;49.448;8.612;2023-10-08T05:07:51;15.10;98.30
1107;DHT22;540;49.448;8.612;2023-10-08T05:10:28;15.10;98.30
1107;DHT22;540;49.448;8.612;2023-10-08T05:13:11;14.80;98.00
1107;DHT22;540;49.448;8.612;2023-10-08T05:15:57;15.30;98.10
1107;DHT22;540;49.448;8.612;2023-10-08T05:18:48;15.00;97.80
1107;DHT22;540;49.448;8.612;2023-10-08T05:21:34;15.00;98.00
1107;DHT22;540;49.448;8.612;2023-10-08T05:24:19;15.10;98.00
1107;DHT22;540;49.448;8.612;2023-10-08T05:26:55;14.80;97.50
1107;DHT22;540;49.448;8.612;2023-10-08T05:29:48;15.30;97.70
1107;DHT22;540;49.448;8.612;2023-10-08T05:32:36;15.20;97.60
1107;DHT22;540;49.448;8.612;2023-10-08T05:35:20;15.20;97.60
1107;DHT22;540;49.448;8.612;2023-10-08T05:38:17;15.40;98.00
1107;DHT22;540;49.448;8.612;2023-10-08T05:40:51;15.00;97.40
1107;DHT22;540;49.448;8.612;2023-10-08T05:43:37;15.30;97.20
1107;DHT22;540;49.448;8.612;2023-10-08T05:46:22;15.50;97.40
1107;DHT22;540;49.448;8.612;2023-10-08T05:49:09;15.30;97.20
1107;DHT22;540;49.448;8.612;2023-10-08T05:52:09;15.10;96.90
1107;DHT22;540;49.448;8.612;2023-10-08T05:54:52;15.30;96.80
1107;DHT22;540;49.448;8.612;2023-10-08T05:57:41;15.20;96.60
1107;DHT22;540;49.448;8.612;2023-10-08T06:00:24;15.40;96.50
1107;DHT22;540;49.448;8.612;2023-10-08T06:03:13;15.40;96.50
1107;DHT22;540;49.448;8.612;2023-10-08T06:06:12;15.40;96.20
1107;DHT22;540;49.448;8.612;2023-10-08T06:09:04;15.40;95.90
1107;DHT22;540;49.448;8.612;2023-10-08T06:11:38;15.60;95.40
1107;DHT22;540;49.448;8.612;2023-10-08T06:14:13;14.90;94.90
1107;DHT22;540;49.448;8.612;2023-10-08T06:16:40;15.60;95.00
1107;DHT22;540;49.448;8.612;2023-10-08T06:19:14;15.80;94.70
1107;DHT22;540;49.448;8.612;2023-10-08T06:21:42;15.70;94.50
1107;DHT22;540;49.448;8.612;2023-10-08T06:24:12;15.70;94.40
1107;DHT22;540;49.448;8.612;2023-10-08T06:26:44;15.60;94.10
1107;DHT22;540;49.448;8.612;2023-10-08T06:29:15;15.90;94.20
1107;DHT22;540;49.448;8.612;2023-10-08T06:31:54;15.90;93.90
1107;DHT22;540;49.448;8.612;2023-10-08T06:34:23;15.80;94.00
1107;DHT22;540;49.448;8.612;2023-10-08T06:36:58;16.00;93.80
1107;DHT22;540;49.448;8.612;2023-10-08T06:39:28;15.90;93.60
1107;DHT22;540;49.448;8.612;2023-10-08T06:42:14;16.10;93.70
1107;DHT22;540;49.448;8.612;2023-10-08T06:44:43;15.90;93.30
1107;DHT22;540;49.448;8.612;2023-10-08T06:47:13;15.90;93.40
1107;DHT22;540;49.448;8.612;2023-10-08T06:49:43;15.90;93.60
1107;DHT22;540;49.448;8.612;2023-10-08T06:52:12;15.70;93.50
1107;DHT22;540;49.448;8.612;2023-10-08T06:54:40;15.80;93.60
1107;DHT22;540;49.448;8.612;2023-10-08T06:57:08;15.90;93.60
1107;DHT22;540;49.448;8.612;2023-10-08T06:59:41;15.80;93.60
1107;DHT22;540;49.448;8.612;2023-10-08T07:02:13;15.70;93.70
1107;DHT22;540;49.448;8.612;2023-10-08T07:04:42;15.80;93.80
1107;DHT22;540;49.448;8.612;2023-10-08T07:07:17;16.00;93.80
1107;DHT22;540;49.448;8.612;2023-10-08T07:09:45;16.00;93.30
1107;DHT22;540;49.448;8.612;2023-10-08T07:12:14;16.20;93.20
1107;DHT22;540;49.448;8.612;2023-10-08T07:14:50;16.00;92.80
1107;DHT22;540;49.448;8.612;2023-10-08T07:17:24;16.20;92.80
1107;DHT22;540;49.448;8.612;2023-10-08T07:19:55;16.30;92.40
1107;DHT22;540;49.448;8.612;2023-10-08T07:22:26;16.30;92.30
1107;DHT22;540;49.448;8.612;2023-10-08T07:24:57;16.50;91.60
1107;DHT22;540;49.448;8.612;2023-10-08T07:27:26;17.10;90.70
1107;DHT22;540;49.448;8.612;2023-10-08T07:29:59;17.90;89.50
1107;DHT22;540;49.448;8.612;2023-10-08T07:32:30;19.00;83.50
1107;DHT22;540;49.448;8.612;2023-10-08T07:34:58;20.10;76.90
1107;DHT22;540;49.448;8.612;2023-10-08T07:37:43;20.70;72.20
1107;DHT22;540;49.448;8.612;2023-10-08T07:40:12;21.00;68.80
1107;DHT22;540;49.448;8.612;2023-10-08T07:42:40;20.90;68.40
1107;DHT22;540;49.448;8.612;2023-10-08T07:45:08;20.90;68.20
1107;DHT22;540;49.448;8.612;2023-10-08T07:47:37;21.30;67.10
1107;DHT22;540;49.448;8.612;2023-10-08T07:50:07;21.70;65.10
1107;DHT22;540;49.448;8.612;2023-10-08T07:52:40;21.50;64.90
1107;DHT22;540;49.448;8.612;2023-10-08T07:55:12;21.00;66.70
1107;DHT22;540;49.448;8.612;2023-10-08T07:57:46;20.80;68.00
1107;DHT22;540;49.448;8.612;2023-10-08T08:00:24;20.90;68.00
1107;DHT22;540;49.448;8.612;2023-10-08T08:02:58;20.80;67.90
1107;DHT22;540;49.448;8.612;2023-10-08T08:05:28;20.50;69.10
1107;DHT22;540;49.448;8.612;2023-10-08T08:08:02;20.50;69.70
1107;DHT22;540;49.448;8.612;2023-10-08T08:10:38;20.60;69.50
1107;DHT22;540;49.448;8.612;2023-10-08T08:13:11;20.60;69.80
1107;DHT22;540;49.448;8.612;2023-10-08T08:15:48;20.60;69.70
1107;DHT22;540;49.448;8.612;2023-10-08T08:18:19;20.60;69.90
1107;DHT22;540;49.448;8.612;2023-10-08T08:20:54;20.50;70.80
1107;DHT22;540;49.448;8.612;2023-10-08T08:23:30;20.30;71.20
1107;DHT22;540;49.448;8.612;2023-10-08T08:26:01;20.20;73.30
1107;DHT22;540;49.448;8.612;2023-10-08T08:28:41;20.20;73.40
1107;DHT22;540;49.448;8.612;2023-10-08T08:31:14;19.90;73.60
1107;DHT22;540;49.448;8.612;2023-10-08T08:33:44;20.00;74.40
1107;DHT22;540;49.448;8.612;2023-10-08T08:36:28;19.60;75.00
1107;DHT22;540;49.448;8.612;2023-10-08T08:38:56;19.50;75.20
1107;DHT22;540;49.448;8.612;2023-10-08T08:41:26;19.40;76.10
1107;DHT22;540;49.448;8.612;2023-10-08T08:43:54;19.00;77.10
1107;DHT22;540;49.448;8.612;2023-10-08T08:46:28;18.80;78.30
1107;DHT22;540;49.448;8.612;2023-10-08T08:49:01;18.80;79.50
1107;DHT22;540;49.448;8.612;2023-10-08T08:51:31;19.00;80.00
1107;DHT22;540;49.448;8.612;2023-10-08T08:53:59;19.00;79.90
1107;DHT22;540;49.448;8.612;2023-10-08T08:56:38;19.20;79.70
1107;DHT22;540;49.448;8.612;2023-10-08T08:59:06;18.40;79.60
1107;DHT22;540;49.448;8.612;2023-10-08T09:01:39;18.70;80.30
1107;DHT22;540;49.448;8.612;2023-10-08T09:04:07;18.80;80.80
1107;DHT22;540;49.448;8.612;2023-10-08T09:06:37;18.40;81.40
1107;DHT22;540;49.448;8.612;2023-10-08T09:09:05;19.00;81.70
1107;DHT22;540;49.448;8.612;2023-10-08T09:11:51;18.60;81.10
1107;DHT22;540;49.448;8.612;2023-10-08T09:14:20;19.10;80.60
1107;DHT22;540;49.448;8.612;2023-10-08T09:16:49;18.90;80.80
1107;DHT22;540;49.448;8.612;2023-10-08T09:19:17;19.10;81.00
1107;DHT22;540;49.448;8.612;2023-10-08T09:21:59;19.30;81.30
1107;DHT22;540;49.448;8.612;2023-10-08T09:24:30;19.20;81.90
1107;DHT22;540;49.448;8.612;2023-10-08T09:27:02;19.30;82.30
1107;DHT22;540;49.448;8.612;2023-10-08T09:29:30;18.90;82.10
1107;DHT22;540;49.448;8.612;2023-10-08T09:31:59;19.00;83.00
1107;DHT22;540;49.448;8.612;2023-10-08T09:34:28;19.10;83.90
1107;DHT22;540;49.448;8.612;2023-10-08T09:36:58;18.90;82.90
1107;DHT22;540;49.448;8.612;2023-10-08T09:39:28;18.90;83.00
1107;DHT22;540;49.448;8.612;2023-10-08T09:42:05;19.30;83.10
1107;DHT22;540;49.448;8.612;2023-10-08T09:44:34;18.70;82.80
1107;DHT22;540;49.448;8.612;2023-10-08T09:47:03;19.00;83.40
1107;DHT22;540;49.448;8.612;2023-10-08T09:49:32;18.70;83.40
1107;DHT22;540;49.448;8.612;2023-10-08T09:52:02;19.10;83.10
1107;DHT22;540;49.448;8.612;2023-10-08T09:54:39;18.80;83.20
1107;DHT22;540;49.448;8.612;2023-10-08T09:57:12;19.40;84.20
1107;DHT22;540;49.448;8.612;2023-10-08T09:59:45;19.40;84.00
1107;DHT22;540;49.448;8.612;2023-10-08T10:02:13;19.30;83.50
1107;DHT22;540;49.448;8.612;2023-10-08T10:04:43;19.40;83.20
1107;DHT22;540;49.448;8.612;2023-10-08T10:07:12;19.40;83.60
1107;DHT22;540;49.448;8.612;2023-10-08T10:09:43;19.70;83.90
1107;DHT22;540;49.448;8.612;2023-10-08T10:12:20;19.60;82.50
1107;DHT22;540;49.448;8.612;2023-10-08T10:14:53;19.90;82.60
1107;DHT22;540;49.448;8.612;2023-10-08T10:17:26;20.10;81.70
1107;DHT22;540;49.448;8.612;2023-10-08T10:20:11;20.60;79.40
1107;DHT22;540;49.448;8.612;2023-10-08T10:22:43;21.00;77.00
1107;DHT22;540;49.448;8.612;2023-10-08T10:25:16;21.20;75.30
1107;DHT22;540;49.448;8.612;2023-10-08T10:28:23;20.80;75.80
1107;DHT22;540;49.448;8.612;2023-10-08T10:30:51;21.30;75.90
1107;DHT22;540;49.448;8.612;2023-10-08T10:33:20;21.50;74.50
1107;DHT22;540;49.448;8.612;2023-10-08T10:35:52;21.60;74.20
1107;DHT22;540;49.448;8.612;2023-10-08T10:38:21;21.70;73.20
1107;DHT22;540;49.448;8.612;2023-10-08T10:40:53;21.50;73.90
1107;DHT22;540;49.448;8.612;2023-10-08T10:43:26;21.60;73.50
1107;DHT22;540;49.448;8.612;2023-10-08T10:46:01;21.90;72.90
1107;DHT22;540;49.448;8.612;2023-10-08T10:48:51;22.10;72.10
1107;DHT22;540;49.448;8.612;2023-10-08T10:51:33;22.30;71.70
1107;DHT22;540;49.448;8.612;2023-10-08T10:54:01;23.00;69.70
1107;DHT22;540;49.448;8.612;2023-10-08T10:56:35;23.50;67.60
1107;DHT22;540;49.448;8.612;2023-10-08T10:59:11;23.60;65.60
1107;DHT22;540;49.448;8.612;2023-10-08T11:01:46;23.80;64.90
1107;DHT22;540;49.448;8.612;2023-10-08T11:04:19;23.80;64.00
1107;DHT22;540;49.448;8.612;2023-10-08T11:06:57;23.40;64.50
1107;DHT22;540;49.448;8.612;2023-10-08T11:09:27;23.40;66.00
1107;DHT22;540;49.448;8.612;2023-10-08T11:12:07;23.50;65.40
1107;DHT22;540;49.448;8.612;2023-10-08T11:14:40;23.70;65.20
1107;DHT22;540;49.448;8.612;2023-10-08T11:17:12;24.00;63.60
1107;DHT22;540;49.448;8.612;2023-10-08T11:19:42;23.50;64.30
1107;DHT22;540;49.448;8.612;2023-10-08T11:22:13;23.50;65.10
1107;DHT22;540;49.448;8.612;2023-10-08T11:24:44;23.80;64.80
1107;DHT22;540;49.448;8.612;2023-10-08T11:27:17;24.60;62.80
1107;DHT22;540;49.448;8.612;2023-10-08T11:29:58;25.30;59.80
1107;DHT22;540;49.448;8.612;2023-10-08T11:32:28;26.00;57.90
1107;DHT22;540;49.448;8.612;2023-10-08T11:35:00;26.30;56.10
1107;DHT22;540;49.448;8.612;2023-10-08T11:37:45;26.40;56.40
1107;DHT22;540;49.448;8.612;2023-10-08T11:40:22;26.80;54.70
1107;DHT22;540;49.448;8.612;2023-10-08T11:42:57;27.60;53.80
1107;DHT22;540;49.448;8.612;2023-10-08T11:45:28;28.00;52.20
1107;DHT22;540;49.448;8.612;2023-10-08T11:48:05;28.30;51.10
1107;DHT22;540;49.448;8.612;2023-10-08T11:50:39;28.70;50.40
1107;DHT22;540;49.448;8.612;2023-10-08T11:53:08;28.10;49.70
1107;DHT22;540;49.448;8.612;2023-10-08T11:55:39;28.10;50.20
1107;DHT22;540;49.448;8.612;2023-10-08T11:58:09;28.60;49.70
1107;DHT22;540;49.448;8.612;2023-10-08T12:00:48;28.90;49.00
1107;DHT22;540;49.448;8.612;2023-10-08T12:03:19;28.90;48.80
1107;DHT22;540;49.448;8.612;2023-10-08T12:05:53;29.00;48.40
1107;DHT22;540;49.448;8.612;2023-10-08T12:08:27;29.10;48.10
1107;DHT22;540;49.448;8.612;2023-10-08T12:10:55;29.40;47.70
1107;DHT22;540;49.448;8.612;2023-10-08T12:13:26;29.50;47.10
1107;DHT22;540;49.448;8.612;2023-10-08T12:15:56;29.60;46.70
1107;DHT22;540;49.448;8.612;2023-10-08T12:18:33;29.60;46.70
1107;DHT22;540;49.448;8.612;2023-10-08T12:21:07;29.70;46.20
1107;DHT22;540;49.448;8.612;2023-10-08T12:23:37;29.80;45.90
1107;DHT22;540;49.448;8.612;2023-10-08T12:26:07;29.70;45.60
1107;DHT22;540;49.448;8.612;2023-10-08T12:28:35;29.20;46.40
1107;DHT22;540;49.448;8.612;2023-10-08T12:31:05;29.20;46.40
1107;DHT22;540;49.448;8.612;2023-10-08T12:33:37;29.20;46.70
1107;DHT22;540;49.448;8.612;2023-10-08T12:36:06;29.30;46.40
1107;DHT22;540;49.448;8.612;2023-10-08T12:38:42;28.60;46.80
1107;DHT22;540;49.448;8.612;2023-10-08T12:41:13;28.90;47.10
1107;DHT22;540;49.448;8.612;2023-10-08T12:43:46;29.00;46.40
1107;DHT22;540;49.448;8.612;2023-10-08T12:46:21;29.10;46.20
1107;DHT22;540;49.448;8.612;2023-10-08T12:48:57;28.70;46.90
1107;DHT22;540;49.448;8.612;2023-10-08T12:51:28;28.70;46.80
1107;DHT22;540;49.448;8.612;2023-10-08T12:53:59;28.80;46.60
1107;DHT22;540;49.448;8.612;2023-10-08T12:56:35;28.60;46.60
1107;DHT22;540;49.448;8.612;2023-10-08T12:59:06;28.80;46.70
1107;DHT22;540;49.448;8.612;2023-10-08T13:01:37;28.80;46.40
1107;DHT22;540;49.448;8.612;2023-10-08T13:04:11;28.60;46.30
1107;DHT22;540;49.448;8.612;2023-10-08T13:06:43;28.80;46.40
1107;DHT22;540;49.448;8.612;2023-10-08T13:09:13;28.70;46.60
1107;DHT22;540;49.448;8.612;2023-10-08T13:11:41;28.30;47.40
1107;DHT22;540;49.448;8.612;2023-10-08T13:14:10;28.00;47.40
1107;DHT22;540;49.448;8.612;2023-10-08T13:16:40;27.90;47.90
1107;DHT22;540;49.448;8.612;2023-10-08T13:19:12;28.10;48.10
1107;DHT22;540;49.448;8.612;2023-10-08T13:21:42;27.90;47.90
1107;DHT22;540;49.448;8.612;2023-10-08T13:24:10;27.70;48.30
1107;DHT22;540;49.448;8.612;2023-10-08T13:26:39;27.80;48.60
1107;DHT22;540;49.448;8.612;2023-10-08T13:29:09;27.40;49.00
1107;DHT22;540;49.448;8.612;2023-10-08T13:31:39;27.40;49.30
1107;DHT22;540;49.448;8.612;2023-10-08T13:34:09;27.40;49.60
1107;DHT22;540;49.448;8.612;2023-10-08T13:36:39;27.10;49.90
1107;DHT22;540;49.448;8.612;2023-10-08T13:39:07;27.10;50.20
1107;DHT22;540;49.448;8.612;2023-10-08T13:41:37;27.20;49.90
1107;DHT22;540;49.448;8.612;2023-10-08T13:44:06;26.70;50.20
1107;DHT22;540;49.448;8.612;2023-10-08T13:46:35;26.70;50.90
1107;DHT22;540;49.448;8.612;2023-10-08T13:49:05;26.90;50.50
1107;DHT22;540;49.448;8.612;2023-10-08T13:51:37;26.80;50.70
1107;DHT22;540;49.448;8.612;2023-10-08T13:54:05;26.50;51.30
1107;DHT22;540;49.448;8.612;2023-10-08T13:56:37;26.40;51.70
1107;DHT22;540;49.448;8.612;2023-10-08T13:59:07;26.50;51.70
1107;DHT22;540;49.448;8.612;2023-10-08T14:01:41;26.50;51.80
1107;DHT22;540;49.448;8.612;2023-10-08T14:04:13;26.30;52.20
1107;DHT22;540;49.448;8.612;2023-10-08T14:06:48;26.20;52.30
1107;DHT22;540;49.448;8.612;2023-10-08T14:09:25;26.00;52.70
1107;DHT22;540;49.448;8.612;2023-10-08T14:12:02;25.80;53.10
1107;DHT22;540;49.448;8.612;2023-10-08T14:14:30;25.60;53.50
1107;DHT22;540;49.448;8.612;2023-10-08T14:17:02;25.40;54.00
1107;DHT22;540;49.448;8.612;2023-10-08T14:19:35;25.20;54.30
1107;DHT22;540;49.448;8.612;2023-10-08T14:22:18;24.90;54.90
1107;DHT22;540;49.448;8.612;2023-10-08T14:24:51;24.70;55.60
1107;DHT22;540;49.448;8.612;2023-10-08T14:27:26;24.40;56.20
1107;DHT22;540;49.448;8.612;2023-10-08T14:30:00;24.10;56.90
1107;DHT22;540;49.448;8.612;2023-10-08T14:32:32;24.00;57.60
1107;DHT22;540;49.448;8.612;2023-10-08T14:35:00;24.00;58.10
1107;DHT22;540;49.448;8.612;2023-10-08T14:37:47;24.00;58.30
1107;DHT22;540;49.448;8.612;2023-10-08T14:40:34;24.00;58.50
1107;DHT22;540;49.448;8.612;2023-10-08T14:43:19;23.90;58.60
1107;DHT22;540;49.448;8.612;2023-10-08T14:45:51;23.90;59.00
1107;DHT22;540;49.448;8.612;2023-10-08T14:48:21;23.90;58.90
1107;DHT22;540;49.448;8.612;2023-10-08T14:50:52;23.90;59.00
1107;DHT22;540;49.448;8.612;2023-10-08T14:53:23;23.90;58.80
1107;DHT22;540;49.448;8.612;2023-10-08T14:55:55;23.90;59.10
1107;DHT22;540;49.448;8.612;2023-10-08T14:58:24;23.90;59.00
1107;DHT22;540;49.448;8.612;2023-10-08T15:00:53;23.80;58.90
1107;DHT22;540;49.448;8.612;2023-10-08T15:03:21;23.80;59.00
1107;DHT22;540;49.448;8.612;2023-10-08T15:05:49;23.90;59.30
1107;DHT22;540;49.448;8.612;2023-10-08T15:08:18;23.90;58.60
1107;DHT22;540;49.448;8.612;2023-10-08T15:10:50;24.00;58.80
1107;DHT22;540;49.448;8.612;2023-10-08T15:13:19;23.90;58.70
1107;DHT22;540;49.448;8.612;2023-10-08T15:15:47;24.00;59.00
1107;DHT22;540;49.448;8.612;2023-10-08T15:18:16;23.90;59.00
1107;DHT22;540;49.448;8.612;2023-10-08T15:20:45;23.80;59.60
1107;DHT22;540;49.448;8.612;2023-10-08T15:23:13;23.70;60.30
1107;DHT22;540;49.448;8.612;2023-10-08T15:25:43;23.60;61.00
1107;DHT22;540;49.448;8.612;2023-10-08T15:28:15;23.50;62.10
1107;DHT22;540;49.448;8.612;2023-10-08T15:30:43;23.40;62.90
1107;DHT22;540;49.448;8.612;2023-10-08T15:33:14;23.30;63.10
1107;DHT22;540;49.448;8.612;2023-10-08T15:35:43;23.10;63.10
1107;DHT22;540;49.448;8.612;2023-10-08T15:38:11;23.10;63.00
1107;DHT22;540;49.448;8.612;2023-10-08T15:40:39;23.10;63.20
1107;DHT22;540;49.448;8.612;2023-10-08T15:43:09;23.10;63.10
1107;DHT22;540;49.448;8.612;2023-10-08T15:45:52;23.10;63.50
1107;DHT22;540;49.448;8.612;2023-10-08T15:48:20;23.00;63.90
1107;DHT22;540;49.448;8.612;2023-10-08T15:50:48;22.90;64.50
1107;DHT22;540;49.448;8.612;2023-10-08T15:53:16;22.80;64.90
1107;DHT22;540;49.448;8.612;2023-10-08T15:55:44;22.80;65.60
1107;DHT22;540;49.448;8.612;2023-10-08T15:58:14;22.70;66.10
1107;DHT22;540;49.448;8.612;2023-10-08T16:00:44;22.50;66.50
1107;DHT22;540;49.448;8.612;2023-10-08T16:03:13;22.30;66.90
1107;DHT22;540;49.448;8.612;2023-10-08T16:05:45;22.50;67.70
1107;DHT22;540;49.448;8.612;2023-10-08T16:08:17;22.40;67.50
1107;DHT22;540;49.448;8.612;2023-10-08T16:10:46;21.90;67.50
1107;DHT22;540;49.448;8.612;2023-10-08T16:13:14;22.30;67.80
1107;DHT22;540;49.448;8.612;2023-10-08T16:15:43;22.30;68.10
1107;DHT22;540;49.448;8.612;2023-10-08T16:18:12;22.30;68.50
1107;DHT22;540;49.448;8.612;2023-10-08T16:20:41;22.30;68.40
1107;DHT22;540;49.448;8.612;2023-10-08T16:23:09;22.00;67.80
1107;DHT22;540;49.448;8.612;2023-10-08T16:25:39;22.20;67.90
1107;DHT22;540;49.448;8.612;2023-10-08T16:28:08;22.20;67.90
1107;DHT22;540;49.448;8.612;2023-10-08T16:30:38;22.20;69.00
1107;DHT22;540;49.448;8.612;2023-10-08T16:33:10;22.00;68.90
1107;DHT22;540;49.448;8.612;2023-10-08T16:35:40;22.10;69.40
1107;DHT22;540;49.448;8.612;2023-10-08T16:38:08;22.10;69.60
1107;DHT22;540;49.448;8.612;2023-10-08T16:40:36;22.10;70.40
1107;DHT22;540;49.448;8.612;2023-10-08T16:43:04;22.00;71.60
1107;DHT22;540;49.448;8.612;2023-10-08T16:45:38;21.70;72.10
1107;DHT22;540;49.448;8.612;2023-10-08T16:48:06;21.90;73.20
1107;DHT22;540;49.448;8.612;2023-10-08T16:50:35;22.00;74.00
1107;DHT22;540;49.448;8.612;2023-10-08T16:53:04;21.80;74.30
1107;DHT22;540;49.448;8.612;2023-10-08T16:55:32;21.60;75.30